sensor_id;sensor_type;location;lat;lon;timestamp;P1;durP1;ratioP1;P2;durP2;ratioP2
38513;SDS011;24282;48.400;10.808;2024-02-14T00:01:10;5.80;;;3.60;;
38513;SDS011;24282;48.400;10.808;2024-02-14T00:03:36;6.70;;;3.83;;
38513;SDS011;24282;48.400;10.808;2024-02-14T00:06:03;6.90;;;4.50;;
38513;SDS011;24282;48.400;10.808;2024-02-14T00:08:31;7.23;;;4.17;;
38513;SDS011;24282;48.400;10.808;2024-02-14T00:10:57;8.93;;;4.70;;
38513;SDS011;24282;48.400;10.808;2024-02-14T00:13:22;7.43;;;4.47;;
38513;SDS011;24282;48.400;10.808;2024-02-14T00:15:48;5.87;;;4.00;;
38513;SDS011;24282;48.400;10.808;2024-02-14T00:18:14;5.67;;;3.50;;
38513;SDS011;24282;48.400;10.808;2024-02-14T00:20:44;5.63;;;3.93;;
38513;SDS011;24282;48.400;10.808;2024-02-14T00:23:10;6.27;;;3.60;;
38513;SDS011;24282;48.400;10.808;2024-02-14T00:25:36;5.43;;;3.50;;
38513;SDS011;24282;48.400;10.808;2024-02-14T00:28:02;5.13;;;3.47;;
38513;SDS011;24282;48.400;10.808;2024-02-14T00:30:29;5.93;;;3.43;;
38513;SDS011;24282;48.400;10.808;2024-02-14T00:32:55;6.20;;;2.80;;
38513;SDS011;24282;48.400;10.808;2024-02-14T00:35:21;4.30;;;3.00;;
38513;SDS011;24282;48.400;10.808;2024-02-14T00:37:47;6.73;;;3.57;;
38513;SDS011;24282;48.400;10.808;2024-02-14T00:40:12;4.43;;;3.07;;
38513;SDS011;24282;48.400;10.808;2024-02-14T00:42:38;4.70;;;3.37;;
38513;SDS011;24282;48.400;10.808;2024-02-14T00:45:04;4.43;;;2.87;;
38513;SDS011;24282;48.400;10.808;2024-02-14T00:47:34;5.30;;;2.97;;
38513;SDS011;24282;48.400;10.808;2024-02-14T00:50:00;6.10;;;3.17;;
38513;SDS011;24282;48.400;10.808;2024-02-14T00:52:26;4.93;;;3.13;;
38513;SDS011;24282;48.400;10.808;2024-02-14T00:54:55;4.10;;;2.63;;
38513;SDS011;24282;48.400;10.808;2024-02-14T00:57:21;5.53;;;3.10;;
38513;SDS011;24282;48.400;10.808;2024-02-14T00:59:51;5.80;;;2.80;;
38513;SDS011;24282;48.400;10.808;2024-02-14T01:02:18;6.83;;;3.60;;
38513;SDS011;24282;48.400;10.808;2024-02-14T01:04:43;5.60;;;3.27;;
38513;SDS011;24282;48.400;10.808;2024-02-14T01:07:09;6.83;;;3.43;;
38513;SDS011;24282;48.400;10.808;2024-02-14T01:09:35;4.73;;;2.97;;
38513;SDS011;24282;48.400;10.808;2024-02-14T01:12:01;5.90;;;3.47;;
38513;SDS011;24282;48.400;10.808;2024-02-14T01:14:27;4.57;;;2.47;;
38513;SDS011;24282;48.400;10.808;2024-02-14T01:16:53;5.20;;;2.83;;
38513;SDS011;24282;48.400;10.808;2024-02-14T01:19:19;5.00;;;2.97;;
38513;SDS011;24282;48.400;10.808;2024-02-14T01:21:45;5.80;;;2.87;;
38513;SDS011;24282;48.400;10.808;2024-02-14T01:24:14;4.33;;;2.60;;
38513;SDS011;24282;48.400;10.808;2024-02-14T01:26:40;4.70;;;3.27;;
38513;SDS011;24282;48.400;10.808;2024-02-14T01:29:05;4.67;;;2.97;;
38513;SDS011;24282;48.400;10.808;2024-02-14T01:31:32;5.60;;;3.30;;
38513;SDS011;24282;48.400;10.808;2024-02-14T01:33:59;5.67;;;2.90;;
38513;SDS011;24282;48.400;10.808;2024-02-14T01:36:30;5.17;;;3.10;;
38513;SDS011;24282;48.400;10.808;2024-02-14T01:38:55;4.73;;;2.50;;
38513;SDS011;24282;48.400;10.808;2024-02-14T01:41:21;4.27;;;2.70;;
38513;SDS011;24282;48.400;10.808;2024-02-14T01:43:47;6.13;;;3.57;;
38513;SDS011;24282;48.400;10.808;2024-02-14T01:46:14;6.30;;;3.03;;
38513;SDS011;24282;48.400;10.808;2024-02-14T01:48:41;7.23;;;2.87;;
38513;SDS011;24282;48.400;10.808;2024-02-14T01:51:08;7.63;;;3.80;;
38513;SDS011;24282;48.400;10.808;2024-02-14T01:53:36;4.90;;;3.00;;
38513;SDS011;24282;48.400;10.808;2024-02-14T01:56:03;5.07;;;3.30;;
38513;SDS011;24282;48.400;10.808;2024-02-14T01:58:31;4.70;;;2.57;;
38513;SDS011;24282;48.400;10.808;2024-02-14T02:00:58;4.27;;;3.10;;
38513;SDS011;24282;48.400;10.808;2024-02-14T02:03:25;5.83;;;3.10;;
38513;SDS011;24282;48.400;10.808;2024-02-14T02:05:51;4.90;;;2.97;;
38513;SDS011;24282;48.400;10.808;2024-02-14T02:08:18;4.47;;;2.50;;
38513;SDS011;24282;48.400;10.808;2024-02-14T02:10:45;4.80;;;3.17;;
38513;SDS011;24282;48.400;10.808;2024-02-14T02:13:13;5.20;;;3.10;;
38513;SDS011;24282;48.400;10.808;2024-02-14T02:15:40;6.67;;;3.13;;
38513;SDS011;24282;48.400;10.808;2024-02-14T02:18:10;7.77;;;3.73;;
38513;SDS011;24282;48.400;10.808;2024-02-14T02:20:36;6.07;;;3.83;;
38513;SDS011;24282;48.400;10.808;2024-02-14T02:23:02;9.97;;;4.43;;
38513;SDS011;24282;48.400;10.808;2024-02-14T02:25:28;8.13;;;4.63;;
38513;SDS011;24282;48.400;10.808;2024-02-14T02:27:54;6.73;;;3.80;;
38513;SDS011;24282;48.400;10.808;2024-02-14T02:30:22;5.43;;;3.17;;
38513;SDS011;24282;48.400;10.808;2024-02-14T02:32:48;7.23;;;3.57;;
38513;SDS011;24282;48.400;10.808;2024-02-14T02:35:15;5.37;;;3.10;;
38513;SDS011;24282;48.400;10.808;2024-02-14T02:37:41;4.63;;;2.87;;
38513;SDS011;24282;48.400;10.808;2024-02-14T02:40:09;5.70;;;2.47;;
38513;SDS011;24282;48.400;10.808;2024-02-14T02:42:35;4.47;;;2.77;;
38513;SDS011;24282;48.400;10.808;2024-02-14T02:45:01;4.83;;;2.53;;
38513;SDS011;24282;48.400;10.808;2024-02-14T02:47:30;4.87;;;2.50;;
38513;SDS011;24282;48.400;10.808;2024-02-14T02:49:57;5.03;;;2.70;;
38513;SDS011;24282;48.400;10.808;2024-02-14T02:52:24;5.33;;;3.20;;
38513;SDS011;24282;48.400;10.808;2024-02-14T02:54:50;5.17;;;2.57;;
38513;SDS011;24282;48.400;10.808;2024-02-14T02:57:17;5.57;;;2.87;;
38513;SDS011;24282;48.400;10.808;2024-02-14T02:59:44;4.40;;;2.83;;
38513;SDS011;24282;48.400;10.808;2024-02-14T03:02:11;4.17;;;2.77;;
38513;SDS011;24282;48.400;10.808;2024-02-14T03:04:37;5.50;;;2.90;;
38513;SDS011;24282;48.400;10.808;2024-02-14T03:07:03;4.43;;;2.70;;
38513;SDS011;24282;48.400;10.808;2024-02-14T03:09:32;6.83;;;2.80;;
38513;SDS011;24282;48.400;10.808;2024-02-14T03:11:58;4.00;;;2.40;;
38513;SDS011;24282;48.400;10.808;2024-02-14T03:14:23;4.17;;;2.23;;
38513;SDS011;24282;48.400;10.808;2024-02-14T03:16:49;5.63;;;2.43;;
38513;SDS011;24282;48.400;10.808;2024-02-14T03:19:16;4.17;;;2.20;;
38513;SDS011;24282;48.400;10.808;2024-02-14T03:21:41;5.43;;;2.53;;
38513;SDS011;24282;48.400;10.808;2024-02-14T03:24:08;4.73;;;2.53;;
38513;SDS011;24282;48.400;10.808;2024-02-14T03:26:34;5.77;;;2.30;;
38513;SDS011;24282;48.400;10.808;2024-02-14T03:29:01;4.93;;;2.40;;
38513;SDS011;24282;48.400;10.808;2024-02-14T03:31:27;5.63;;;2.50;;
38513;SDS011;24282;48.400;10.808;2024-02-14T03:33:53;6.73;;;2.47;;
38513;SDS011;24282;48.400;10.808;2024-02-14T03:36:19;3.73;;;2.20;;
38513;SDS011;24282;48.400;10.808;2024-02-14T03:38:44;4.50;;;2.40;;
38513;SDS011;24282;48.400;10.808;2024-02-14T03:41:11;4.63;;;2.43;;
38513;SDS011;24282;48.400;10.808;2024-02-14T03:43:38;3.60;;;2.30;;
38513;SDS011;24282;48.400;10.808;2024-02-14T03:46:04;5.37;;;2.73;;
38513;SDS011;24282;48.400;10.808;2024-02-14T03:48:30;4.10;;;2.23;;
38513;SDS011;24282;48.400;10.808;2024-02-14T03:50:56;3.33;;;2.20;;
38513;SDS011;24282;48.400;10.808;2024-02-14T03:53:22;3.57;;;2.47;;
38513;SDS011;24282;48.400;10.808;2024-02-14T03:55:48;4.67;;;2.70;;
38513;SDS011;24282;48.400;10.808;2024-02-14T03:58:15;3.87;;;2.43;;
38513;SDS011;24282;48.400;10.808;2024-02-14T04:00:47;2.25;;;1.60;;
38513;SDS011;24282;48.400;10.808;2024-02-14T04:03:16;5.13;;;2.63;;
38513;SDS011;24282;48.400;10.808;2024-02-14T04:05:43;4.37;;;2.37;;
38513;SDS011;24282;48.400;10.808;2024-02-14T04:08:10;4.30;;;2.60;;
38513;SDS011;24282;48.400;10.808;2024-02-14T04:10:36;4.53;;;2.63;;
38513;SDS011;24282;48.400;10.808;2024-02-14T04:13:05;5.07;;;2.50;;
38513;SDS011;24282;48.400;10.808;2024-02-14T04:15:31;6.23;;;2.53;;
38513;SDS011;24282;48.400;10.808;2024-02-14T04:17:57;5.30;;;2.30;;
38513;SDS011;24282;48.400;10.808;2024-02-14T04:20:25;3.57;;;2.00;;
38513;SDS011;24282;48.400;10.808;2024-02-14T04:22:50;7.57;;;2.57;;
38513;SDS011;24282;48.400;10.808;2024-02-14T04:25:16;4.37;;;2.13;;
38513;SDS011;24282;48.400;10.808;2024-02-14T04:27:43;5.47;;;2.60;;
38513;SDS011;24282;48.400;10.808;2024-02-14T04:30:09;3.67;;;2.20;;
38513;SDS011;24282;48.400;10.808;2024-02-14T04:32:35;5.27;;;2.60;;
38513;SDS011;24282;48.400;10.808;2024-02-14T04:35:01;3.37;;;1.90;;
38513;SDS011;24282;48.400;10.808;2024-02-14T04:37:27;4.13;;;2.57;;
38513;SDS011;24282;48.400;10.808;2024-02-14T04:39:54;3.97;;;2.00;;
38513;SDS011;24282;48.400;10.808;2024-02-14T04:42:20;4.27;;;2.40;;
38513;SDS011;24282;48.400;10.808;2024-02-14T04:44:46;4.37;;;2.30;;
38513;SDS011;24282;48.400;10.808;2024-02-14T04:47:11;4.07;;;2.23;;
38513;SDS011;24282;48.400;10.808;2024-02-14T04:49:37;3.57;;;2.20;;
38513;SDS011;24282;48.400;10.808;2024-02-14T04:52:03;4.27;;;2.17;;
38513;SDS011;24282;48.400;10.808;2024-02-14T04:54:29;3.30;;;2.17;;
38513;SDS011;24282;48.400;10.808;2024-02-14T04:56:55;3.67;;;2.50;;
38513;SDS011;24282;48.400;10.808;2024-02-14T04:59:21;5.37;;;2.97;;
38513;SDS011;24282;48.400;10.808;2024-02-14T05:01:46;5.70;;;2.83;;
38513;SDS011;24282;48.400;10.808;2024-02-14T05:04:13;4.90;;;3.23;;
38513;SDS011;24282;48.400;10.808;2024-02-14T05:06:39;8.47;;;3.00;;
38513;SDS011;24282;48.400;10.808;2024-02-14T05:09:05;3.70;;;2.27;;
38513;SDS011;24282;48.400;10.808;2024-02-14T05:11:30;3.90;;;2.30;;
38513;SDS011;24282;48.400;10.808;2024-02-14T05:13:56;3.23;;;2.13;;
38513;SDS011;24282;48.400;10.808;2024-02-14T05:16:22;4.77;;;2.57;;
38513;SDS011;24282;48.400;10.808;2024-02-14T05:18:48;4.87;;;2.73;;
38513;SDS011;24282;48.400;10.808;2024-02-14T05:21:14;4.43;;;2.40;;
38513;SDS011;24282;48.400;10.808;2024-02-14T05:23:40;4.30;;;2.30;;
38513;SDS011;24282;48.400;10.808;2024-02-14T05:26:06;3.00;;;2.10;;
38513;SDS011;24282;48.400;10.808;2024-02-14T05:28:32;5.20;;;2.40;;
38513;SDS011;24282;48.400;10.808;2024-02-14T05:30:58;3.20;;;2.50;;
38513;SDS011;24282;48.400;10.808;2024-02-14T05:33:24;5.43;;;3.30;;
38513;SDS011;24282;48.400;10.808;2024-02-14T05:35:51;3.73;;;2.80;;
38513;SDS011;24282;48.400;10.808;2024-02-14T05:38:17;4.43;;;2.63;;
38513;SDS011;24282;48.400;10.808;2024-02-14T05:40:46;4.83;;;2.60;;
38513;SDS011;24282;48.400;10.808;2024-02-14T05:43:13;3.57;;;2.70;;
38513;SDS011;24282;48.400;10.808;2024-02-14T05:45:39;5.73;;;3.03;;
38513;SDS011;24282;48.400;10.808;2024-02-14T05:48:05;4.40;;;3.07;;
38513;SDS011;24282;48.400;10.808;2024-02-14T05:50:31;5.00;;;2.80;;
38513;SDS011;24282;48.400;10.808;2024-02-14T05:52:57;4.20;;;3.10;;
38513;SDS011;24282;48.400;10.808;2024-02-14T05:55:23;4.13;;;2.93;;
38513;SDS011;24282;48.400;10.808;2024-02-14T05:57:52;4.77;;;2.83;;
38513;SDS011;24282;48.400;10.808;2024-02-14T06:00:21;5.50;;;3.10;;
38513;SDS011;24282;48.400;10.808;2024-02-14T06:02:47;4.97;;;2.63;;
38513;SDS011;24282;48.400;10.808;2024-02-14T06:05:13;4.77;;;3.13;;
38513;SDS011;24282;48.400;10.808;2024-02-14T06:07:39;4.27;;;2.73;;
38513;SDS011;24282;48.400;10.808;2024-02-14T06:10:06;5.17;;;3.30;;
38513;SDS011;24282;48.400;10.808;2024-02-14T06:12:33;5.87;;;4.17;;
38513;SDS011;24282;48.400;10.808;2024-02-14T06:14:59;6.43;;;3.37;;
38513;SDS011;24282;48.400;10.808;2024-02-14T06:17:25;7.43;;;4.00;;
38513;SDS011;24282;48.400;10.808;2024-02-14T06:19:54;5.53;;;3.00;;
38513;SDS011;24282;48.400;10.808;2024-02-14T06:22:20;4.47;;;3.07;;
38513;SDS011;24282;48.400;10.808;2024-02-14T06:24:46;5.70;;;3.43;;
38513;SDS011;24282;48.400;10.808;2024-02-14T06:27:15;8.33;;;3.60;;
38513;SDS011;24282;48.400;10.808;2024-02-14T06:29:44;4.50;;;3.07;;
38513;SDS011;24282;48.400;10.808;2024-02-14T06:32:12;4.60;;;3.00;;
38513;SDS011;24282;48.400;10.808;2024-02-14T06:34:38;5.50;;;3.50;;
38513;SDS011;24282;48.400;10.808;2024-02-14T06:37:04;5.03;;;3.20;;
38513;SDS011;24282;48.400;10.808;2024-02-14T06:39:30;6.07;;;3.80;;
38513;SDS011;24282;48.400;10.808;2024-02-14T06:41:56;5.47;;;3.23;;
38513;SDS011;24282;48.400;10.808;2024-02-14T06:44:25;4.20;;;3.07;;
38513;SDS011;24282;48.400;10.808;2024-02-14T06:46:51;6.30;;;3.40;;
38513;SDS011;24282;48.400;10.808;2024-02-14T06:49:17;4.70;;;3.17;;
38513;SDS011;24282;48.400;10.808;2024-02-14T06:51:42;4.23;;;2.77;;
38513;SDS011;24282;48.400;10.808;2024-02-14T06:54:11;5.73;;;3.20;;
38513;SDS011;24282;48.400;10.808;2024-02-14T06:56:42;5.40;;;3.40;;
38513;SDS011;24282;48.400;10.808;2024-02-14T06:59:07;5.13;;;3.53;;
38513;SDS011;24282;48.400;10.808;2024-02-14T07:01:33;5.90;;;3.07;;
38513;SDS011;24282;48.400;10.808;2024-02-14T07:03:59;4.97;;;2.70;;
38513;SDS011;24282;48.400;10.808;2024-02-14T07:06:26;4.10;;;2.50;;
38513;SDS011;24282;48.400;10.808;2024-02-14T07:08:53;5.10;;;2.87;;
38513;SDS011;24282;48.400;10.808;2024-02-14T07:11:19;6.87;;;3.27;;
38513;SDS011;24282;48.400;10.808;2024-02-14T07:13:45;5.50;;;2.50;;
38513;SDS011;24282;48.400;10.808;2024-02-14T07:16:10;4.03;;;2.20;;
38513;SDS011;24282;48.400;10.808;2024-02-14T07:18:36;3.30;;;2.03;;
38513;SDS011;24282;48.400;10.808;2024-02-14T07:21:02;7.93;;;2.60;;
38513;SDS011;24282;48.400;10.808;2024-02-14T07:23:31;4.03;;;2.40;;
38513;SDS011;24282;48.400;10.808;2024-02-14T07:25:58;3.93;;;2.30;;
38513;SDS011;24282;48.400;10.808;2024-02-14T07:28:26;3.10;;;2.23;;
38513;SDS011;24282;48.400;10.808;2024-02-14T07:30:51;4.70;;;2.30;;
38513;SDS011;24282;48.400;10.808;2024-02-14T07:33:17;3.33;;;2.10;;
38513;SDS011;24282;48.400;10.808;2024-02-14T07:35:43;3.60;;;2.37;;
38513;SDS011;24282;48.400;10.808;2024-02-14T07:38:08;4.67;;;2.93;;
38513;SDS011;24282;48.400;10.808;2024-02-14T07:40:34;6.50;;;4.07;;
38513;SDS011;24282;48.400;10.808;2024-02-14T07:43:00;5.80;;;3.97;;
38513;SDS011;24282;48.400;10.808;2024-02-14T07:45:26;9.77;;;5.40;;
38513;SDS011;24282;48.400;10.808;2024-02-14T07:47:52;7.27;;;5.10;;
38513;SDS011;24282;48.400;10.808;2024-02-14T07:50:18;8.30;;;4.20;;
38513;SDS011;24282;48.400;10.808;2024-02-14T07:52:44;5.43;;;3.43;;
38513;SDS011;24282;48.400;10.808;2024-02-14T07:55:10;7.57;;;3.30;;
38513;SDS011;24282;48.400;10.808;2024-02-14T07:57:40;4.90;;;2.90;;
38513;SDS011;24282;48.400;10.808;2024-02-14T08:00:06;4.97;;;2.73;;
38513;SDS011;24282;48.400;10.808;2024-02-14T08:02:36;4.97;;;2.90;;
38513;SDS011;24282;48.400;10.808;2024-02-14T08:05:02;6.17;;;3.07;;
38513;SDS011;24282;48.400;10.808;2024-02-14T08:07:30;5.63;;;3.20;;
38513;SDS011;24282;48.400;10.808;2024-02-14T08:09:56;3.43;;;2.40;;
38513;SDS011;24282;48.400;10.808;2024-02-14T08:12:22;5.27;;;3.00;;
38513;SDS011;24282;48.400;10.808;2024-02-14T08:14:48;4.57;;;2.47;;
38513;SDS011;24282;48.400;10.808;2024-02-14T08:17:15;5.43;;;2.40;;
38513;SDS011;24282;48.400;10.808;2024-02-14T08:19:41;3.77;;;2.30;;
38513;SDS011;24282;48.400;10.808;2024-02-14T08:22:06;4.87;;;2.70;;
38513;SDS011;24282;48.400;10.808;2024-02-14T08:24:33;5.00;;;2.70;;
38513;SDS011;24282;48.400;10.808;2024-02-14T08:26:58;4.80;;;2.50;;
38513;SDS011;24282;48.400;10.808;2024-02-14T08:29:24;4.70;;;2.87;;
38513;SDS011;24282;48.400;10.808;2024-02-14T08:31:50;6.13;;;2.30;;
38513;SDS011;24282;48.400;10.808;2024-02-14T08:34:16;3.20;;;1.67;;
38513;SDS011;24282;48.400;10.808;2024-02-14T08:36:42;2.20;;;1.30;;
38513;SDS011;24282;48.400;10.808;2024-02-14T08:39:08;3.20;;;1.50;;
38513;SDS011;24282;48.400;10.808;2024-02-14T08:41:35;3.37;;;1.43;;
38513;SDS011;24282;48.400;10.808;2024-02-14T08:44:06;2.73;;;1.43;;
38513;SDS011;24282;48.400;10.808;2024-02-14T08:46:32;2.93;;;1.37;;
38513;SDS011;24282;48.400;10.808;2024-02-14T08:49:00;2.73;;;1.30;;
38513;SDS011;24282;48.400;10.808;2024-02-14T08:51:27;3.23;;;1.43;;
38513;SDS011;24282;48.400;10.808;2024-02-14T08:53:53;2.03;;;1.33;;
38513;SDS011;24282;48.400;10.808;2024-02-14T08:56:22;3.63;;;1.27;;
38513;SDS011;24282;48.400;10.808;2024-02-14T08:58:48;2.37;;;1.20;;
38513;SDS011;24282;48.400;10.808;2024-02-14T09:01:14;2.17;;;1.13;;
38513;SDS011;24282;48.400;10.808;2024-02-14T09:03:41;2.93;;;1.60;;
38513;SDS011;24282;48.400;10.808;2024-02-14T09:06:13;3.77;;;1.57;;
38513;SDS011;24282;48.400;10.808;2024-02-14T09:08:40;3.70;;;1.70;;
38513;SDS011;24282;48.400;10.808;2024-02-14T09:11:06;3.40;;;1.33;;
38513;SDS011;24282;48.400;10.808;2024-02-14T09:13:33;4.40;;;2.23;;
38513;SDS011;24282;48.400;10.808;2024-02-14T09:15:58;2.30;;;1.33;;
38513;SDS011;24282;48.400;10.808;2024-02-14T09:18:24;2.73;;;1.23;;
38513;SDS011;24282;48.400;10.808;2024-02-14T09:20:53;3.73;;;1.87;;
38513;SDS011;24282;48.400;10.808;2024-02-14T09:23:19;2.70;;;1.40;;
38513;SDS011;24282;48.400;10.808;2024-02-14T09:25:47;2.03;;;1.37;;
38513;SDS011;24282;48.400;10.808;2024-02-14T09:28:15;2.90;;;1.40;;
38513;SDS011;24282;48.400;10.808;2024-02-14T09:30:41;3.90;;;2.10;;
38513;SDS011;24282;48.400;10.808;2024-02-14T09:33:06;4.07;;;1.70;;
38513;SDS011;24282;48.400;10.808;2024-02-14T09:35:32;2.77;;;1.60;;
38513;SDS011;24282;48.400;10.808;2024-02-14T09:38:00;2.23;;;1.20;;
38513;SDS011;24282;48.400;10.808;2024-02-14T09:40:25;2.53;;;1.20;;
38513;SDS011;24282;48.400;10.808;2024-02-14T09:42:55;1.70;;;1.23;;
38513;SDS011;24282;48.400;10.808;2024-02-14T09:45:26;2.17;;;1.10;;
38513;SDS011;24282;48.400;10.808;2024-02-14T09:47:55;1.77;;;1.17;;
38513;SDS011;24282;48.400;10.808;2024-02-14T09:50:22;2.77;;;1.13;;
38513;SDS011;24282;48.400;10.808;2024-02-14T09:52:49;1.20;;;0.97;;
38513;SDS011;24282;48.400;10.808;2024-02-14T09:55:16;2.80;;;1.10;;
38513;SDS011;24282;48.400;10.808;2024-02-14T09:57:42;2.37;;;1.30;;
38513;SDS011;24282;48.400;10.808;2024-02-14T10:00:12;2.10;;;1.30;;
38513;SDS011;24282;48.400;10.808;2024-02-14T10:02:41;2.33;;;1.10;;
38513;SDS011;24282;48.400;10.808;2024-02-14T10:05:07;2.77;;;1.10;;
38513;SDS011;24282;48.400;10.808;2024-02-14T10:07:42;2.13;;;1.00;;
38513;SDS011;24282;48.400;10.808;2024-02-14T10:10:09;2.10;;;1.10;;
38513;SDS011;24282;48.400;10.808;2024-02-14T10:12:35;1.83;;;1.00;;
38513;SDS011;24282;48.400;10.808;2024-02-14T10:15:02;3.17;;;1.33;;
38513;SDS011;24282;48.400;10.808;2024-02-14T10:17:29;3.20;;;1.23;;
38513;SDS011;24282;48.400;10.808;2024-02-14T10:19:58;2.07;;;0.87;;
38513;SDS011;24282;48.400;10.808;2024-02-14T10:22:24;2.50;;;1.60;;
38513;SDS011;24282;48.400;10.808;2024-02-14T10:24:57;3.28;;;1.10;;
38513;SDS011;24282;48.400;10.808;2024-02-14T10:27:22;2.40;;;0.90;;
38513;SDS011;24282;48.400;10.808;2024-02-14T10:29:48;2.20;;;0.97;;
38513;SDS011;24282;48.400;10.808;2024-02-14T10:32:14;3.83;;;1.00;;
38513;SDS011;24282;48.400;10.808;2024-02-14T10:34:41;1.83;;;0.90;;
38513;SDS011;24282;48.400;10.808;2024-02-14T10:37:11;3.90;;;0.90;;
38513;SDS011;24282;48.400;10.808;2024-02-14T10:39:40;1.53;;;0.90;;
38513;SDS011;24282;48.400;10.808;2024-02-14T10:42:07;1.43;;;0.80;;
38513;SDS011;24282;48.400;10.808;2024-02-14T10:44:34;4.03;;;1.00;;
38513;SDS011;24282;48.400;10.808;2024-02-14T10:47:00;2.67;;;1.13;;
38513;SDS011;24282;48.400;10.808;2024-02-14T10:49:32;1.20;;;0.70;;
38513;SDS011;24282;48.400;10.808;2024-02-14T10:51:59;2.97;;;0.80;;
38513;SDS011;24282;48.400;10.808;2024-02-14T10:54:29;1.80;;;0.90;;
38513;SDS011;24282;48.400;10.808;2024-02-14T10:56:55;1.80;;;1.00;;
38513;SDS011;24282;48.400;10.808;2024-02-14T10:59:24;1.83;;;1.13;;
38513;SDS011;24282;48.400;10.808;2024-02-14T11:01:51;1.93;;;1.00;;
38513;SDS011;24282;48.400;10.808;2024-02-14T11:04:17;2.83;;;1.10;;
38513;SDS011;24282;48.400;10.808;2024-02-14T11:06:47;2.17;;;1.00;;
38513;SDS011;24282;48.400;10.808;2024-02-14T11:09:14;1.97;;;0.90;;
38513;SDS011;24282;48.400;10.808;2024-02-14T11:11:43;1.87;;;0.90;;
38513;SDS011;24282;48.400;10.808;2024-02-14T11:14:09;1.27;;;0.77;;
38513;SDS011;24282;48.400;10.808;2024-02-14T11:16:37;1.40;;;0.87;;
38513;SDS011;24282;48.400;10.808;2024-02-14T11:19:07;2.23;;;1.17;;
38513;SDS011;24282;48.400;10.808;2024-02-14T11:21:45;1.57;;;1.00;;
38513;SDS011;24282;48.400;10.808;2024-02-14T11:24:12;1.77;;;0.90;;
38513;SDS011;24282;48.400;10.808;2024-02-14T11:26:46;2.67;;;1.07;;
38513;SDS011;24282;48.400;10.808;2024-02-14T11:29:17;1.80;;;0.97;;
38513;SDS011;24282;48.400;10.808;2024-02-14T11:31:47;3.07;;;1.00;;
38513;SDS011;24282;48.400;10.808;2024-02-14T11:34:16;1.58;;;1.00;;
38513;SDS011;24282;48.400;10.808;2024-02-14T11:36:43;1.40;;;0.73;;
38513;SDS011;24282;48.400;10.808;2024-02-14T11:39:10;2.47;;;1.00;;
38513;SDS011;24282;48.400;10.808;2024-02-14T11:41:37;1.17;;;0.77;;
38513;SDS011;24282;48.400;10.808;2024-02-14T11:44:03;1.97;;;0.90;;
38513;SDS011;24282;48.400;10.808;2024-02-14T11:46:30;2.30;;;0.90;;
38513;SDS011;24282;48.400;10.808;2024-02-14T11:48:58;2.50;;;1.03;;
38513;SDS011;24282;48.400;10.808;2024-02-14T11:51:28;0.83;;;0.60;;
38513;SDS011;24282;48.400;10.808;2024-02-14T11:53:56;2.17;;;0.83;;
38513;SDS011;24282;48.400;10.808;2024-02-14T11:56:32;1.93;;;0.90;;
38513;SDS011;24282;48.400;10.808;2024-02-14T12:01:32;1.00;;;0.60;;
38513;SDS011;24282;48.400;10.808;2024-02-14T12:03:59;3.43;;;1.07;;
38513;SDS011;24282;48.400;10.808;2024-02-14T12:06:27;1.97;;;0.60;;
38513;SDS011;24282;48.400;10.808;2024-02-14T12:08:54;1.53;;;0.73;;
38513;SDS011;24282;48.400;10.808;2024-02-14T12:11:21;1.53;;;0.80;;
38513;SDS011;24282;48.400;10.808;2024-02-14T12:13:50;1.10;;;0.50;;
38513;SDS011;24282;48.400;10.808;2024-02-14T12:16:15;2.20;;;0.70;;
38513;SDS011;24282;48.400;10.808;2024-02-14T12:18:44;1.37;;;0.80;;
38513;SDS011;24282;48.400;10.808;2024-02-14T12:21:10;2.23;;;0.70;;
38513;SDS011;24282;48.400;10.808;2024-02-14T12:23:37;1.70;;;0.60;;
38513;SDS011;24282;48.400;10.808;2024-02-14T12:26:03;0.93;;;0.50;;
38513;SDS011;24282;48.400;10.808;2024-02-14T12:28:30;4.03;;;0.70;;
38513;SDS011;24282;48.400;10.808;2024-02-14T12:30:56;0.80;;;0.40;;
38513;SDS011;24282;48.400;10.808;2024-02-14T12:33:23;2.83;;;0.50;;
38513;SDS011;24282;48.400;10.808;2024-02-14T12:35:53;0.80;;;0.50;;
38513;SDS011;24282;48.400;10.808;2024-02-14T12:38:20;0.77;;;0.43;;
38513;SDS011;24282;48.400;10.808;2024-02-14T12:40:48;1.43;;;0.63;;
38513;SDS011;24282;48.400;10.808;2024-02-14T12:43:14;1.43;;;0.60;;
38513;SDS011;24282;48.400;10.808;2024-02-14T12:45:43;1.40;;;0.70;;
38513;SDS011;24282;48.400;10.808;2024-02-14T12:48:10;1.03;;;0.60;;
38513;SDS011;24282;48.400;10.808;2024-02-14T12:50:40;2.37;;;0.40;;
38513;SDS011;24282;48.400;10.808;2024-02-14T12:53:12;3.03;;;0.60;;
38513;SDS011;24282;48.400;10.808;2024-02-14T12:55:38;0.93;;;0.60;;
38513;SDS011;24282;48.400;10.808;2024-02-14T12:58:04;1.00;;;0.40;;
38513;SDS011;24282;48.400;10.808;2024-02-14T13:00:30;5.60;;;1.10;;
38513;SDS011;24282;48.400;10.808;2024-02-14T13:02:57;1.70;;;0.70;;
38513;SDS011;24282;48.400;10.808;2024-02-14T13:05:23;1.10;;;0.57;;
38513;SDS011;24282;48.400;10.808;2024-02-14T13:07:50;1.30;;;0.60;;
38513;SDS011;24282;48.400;10.808;2024-02-14T13:10:16;1.57;;;0.60;;
38513;SDS011;24282;48.400;10.808;2024-02-14T13:12:43;0.80;;;0.47;;
38513;SDS011;24282;48.400;10.808;2024-02-14T13:15:10;1.70;;;0.60;;
38513;SDS011;24282;48.400;10.808;2024-02-14T13:17:36;0.70;;;0.40;;
38513;SDS011;24282;48.400;10.808;2024-02-14T13:20:02;1.83;;;0.63;;
38513;SDS011;24282;48.400;10.808;2024-02-14T13:22:28;1.30;;;0.70;;
38513;SDS011;24282;48.400;10.808;2024-02-14T13:24:54;1.77;;;0.60;;
38513;SDS011;24282;48.400;10.808;2024-02-14T13:27:21;1.90;;;0.50;;
38513;SDS011;24282;48.400;10.808;2024-02-14T13:29:48;1.87;;;0.60;;
38513;SDS011;24282;48.400;10.808;2024-02-14T13:32:14;1.13;;;0.60;;
38513;SDS011;24282;48.400;10.808;2024-02-14T13:34:40;1.27;;;0.67;;
38513;SDS011;24282;48.400;10.808;2024-02-14T13:37:06;1.57;;;0.70;;
38513;SDS011;24282;48.400;10.808;2024-02-14T13:39:32;0.80;;;0.50;;
38513;SDS011;24282;48.400;10.808;2024-02-14T13:41:58;1.80;;;0.80;;
38513;SDS011;24282;48.400;10.808;2024-02-14T13:44:25;1.83;;;0.60;;
38513;SDS011;24282;48.400;10.808;2024-02-14T13:46:51;1.70;;;0.60;;
38513;SDS011;24282;48.400;10.808;2024-02-14T13:49:17;1.60;;;0.50;;
38513;SDS011;24282;48.400;10.808;2024-02-14T13:51:55;1.53;;;0.80;;
38513;SDS011;24282;48.400;10.808;2024-02-14T13:54:23;2.20;;;1.00;;
38513;SDS011;24282;48.400;10.808;2024-02-14T13:56:49;2.10;;;0.70;;
38513;SDS011;24282;48.400;10.808;2024-02-14T13:59:15;1.57;;;0.87;;
38513;SDS011;24282;48.400;10.808;2024-02-14T14:01:42;1.30;;;0.60;;
38513;SDS011;24282;48.400;10.808;2024-02-14T14:04:07;1.17;;;0.50;;
38513;SDS011;24282;48.400;10.808;2024-02-14T14:06:33;0.93;;;0.68;;
38513;SDS011;24282;48.400;10.808;2024-02-14T14:09:00;2.03;;;0.63;;
38513;SDS011;24282;48.400;10.808;2024-02-14T14:11:26;0.83;;;0.40;;
38513;SDS011;24282;48.400;10.808;2024-02-14T14:13:51;1.10;;;0.57;;
38513;SDS011;24282;48.400;10.808;2024-02-14T14:16:20;1.43;;;0.60;;
38513;SDS011;24282;48.400;10.808;2024-02-14T14:18:48;1.40;;;0.73;;
38513;SDS011;24282;48.400;10.808;2024-02-14T14:21:14;1.60;;;0.90;;
38513;SDS011;24282;48.400;10.808;2024-02-14T14:23:40;0.90;;;0.60;;
38513;SDS011;24282;48.400;10.808;2024-02-14T14:26:06;1.13;;;0.57;;
38513;SDS011;24282;48.400;10.808;2024-02-14T14:28:32;0.70;;;0.50;;
38513;SDS011;24282;48.400;10.808;2024-02-14T14:30:57;1.17;;;0.57;;
38513;SDS011;24282;48.400;10.808;2024-02-14T14:33:25;1.67;;;0.60;;